Preflight/Weather

The current temperature at Deer Valley airport is 14°C  or 57°F

Deer Valley Metar:

KDVT 020953Z AUTO 00000KT 10SM CLR 14/02 A2979 RMK AO2 SLP072 T01390022

Terminal Area Forecast for Phoenix:

TAF AMD KPHX 020812Z 0208/0312 10006KT P6SM SKC FM021700 25007KT P6SM SKC FM022000 26012G20KT P6SM SKC FM030300 26010KT P6SM SKC FM030900 10006KT P6SM SKC